Time;durP1;ratioP1;P1;durP2;ratioP2;P2;SDS_P1;SDS_P2;PMS_P1;PMS_P2;Temp;Humidity;BMP_temperature;BMP_pressure;BME280_temperature;BME280_humidity;BME280_pressure;Samples;Min_cycle;Max_cycle;Signal;HPM_P1;HPM_P2
2023/09/12 00:02:02;;;;;;;51.67;44.55;;;;;;;18.96;100.00;101045.06;4963964;28;20612;-47
2023/09/12 00:04:28;;;;;;;52.88;45.42;;;;;;;18.98;100.00;101036.78;4965674;28;20228;-47
2023/09/12 00:06:53;;;;;;;52.15;43.80;;;;;;;18.98;100.00;101034.97;4966070;28;20223;-47
2023/09/12 00:09:19;;;;;;;57.10;46.42;;;;;;;18.78;100.00;101044.47;4969172;28;20186;-47
2023/09/12 00:11:44;;;;;;;50.85;44.38;;;;;;;18.79;100.00;101042.66;4962046;28;20194;-48
2023/09/12 00:14:15;;;;;;;59.45;46.78;;;;;;;18.77;100.00;101031.88;4960574;28;20182;-47
2023/09/12 00:16:40;;;;;;;51.03;43.05;;;;;;;18.81;100.00;101041.56;4970749;28;20197;-47
2023/09/12 00:19:06;;;;;;;60.95;48.53;;;;;;;18.63;100.00;101051.84;4964534;28;20191;-48
2023/09/12 00:21:31;;;;;;;57.55;47.30;;;;;;;18.64;100.00;101053.56;4964280;28;20189;-47
2023/09/12 00:23:57;;;;;;;54.25;46.55;;;;;;;18.65;100.00;101054.41;4970775;28;20198;-47
2023/09/12 00:26:22;;;;;;;53.92;46.10;;;;;;;18.58;100.00;101055.81;4969951;28;20178;-47
2023/09/12 00:28:49;;;;;;;55.40;45.40;;;;;;;18.65;100.00;101070.69;4967803;28;20605;-46
2023/09/12 00:31:15;;;;;;;53.13;42.22;;;;;;;18.73;100.00;101068.34;4957688;28;20211;-48
2023/09/12 00:33:41;;;;;;;52.38;44.53;;;;;;;18.67;100.00;101083.22;4971199;28;20270;-48
2023/09/12 00:36:06;;;;;;;56.05;45.55;;;;;;;18.56;100.00;101071.34;4963546;28;20222;-48
2023/09/12 00:38:32;;;;;;;52.55;44.20;;;;;;;18.61;100.00;101082.75;4965907;28;20200;-47
2023/09/12 00:40:57;;;;;;;51.10;45.28;;;;;;;18.57;100.00;101076.66;4949851;28;20197;-48
2023/09/12 00:43:23;;;;;;;58.03;46.63;;;;;;;18.55;100.00;101089.47;4971342;28;20193;-47
2023/09/12 00:45:48;;;;;;;52.33;43.72;;;;;;;18.59;100.00;101082.00;4962880;28;20216;-48
2023/09/12 00:48:16;;;;;;;46.42;41.38;;;;;;;18.64;100.00;101080.69;4963826;28;20201;-48
2023/09/12 00:50:43;;;;;;;52.35;44.78;;;;;;;18.61;100.00;101082.75;4972921;28;20252;-48
2023/09/12 00:53:09;;;;;;;52.25;42.35;;;;;;;18.73;100.00;101071.91;4965265;28;20629;-48
2023/09/12 00:55:38;;;;;;;48.97;42.40;;;;;;;18.69;100.00;101072.22;4959225;28;20206;-48
2023/09/12 00:58:04;;;;;;;50.38;42.42;;;;;;;18.79;100.00;101069.81;4966925;28;20265;-47
2023/09/12 01:00:29;;;;;;;54.15;42.42;;;;;;;18.60;100.00;101073.72;4969748;28;20290;-48
2023/09/12 01:02:57;;;;;;;41.13;35.47;;;;;;;18.66;100.00;101069.75;4962993;28;20189;-47
2023/09/12 01:05:23;;;;;;;39.95;34.38;;;;;;;18.74;100.00;101070.09;4963524;28;20193;-47
2023/09/12 01:07:49;;;;;;;45.47;36.50;;;;;;;18.69;100.00;101066.81;4973084;28;20672;-46
2023/09/12 01:10:14;;;;;;;46.78;36.40;;;;;;;18.74;100.00;101067.38;4966764;28;20634;-47
2023/09/12 01:12:40;;;;;;;46.90;36.10;;;;;;;18.69;100.00;101064.09;4959412;28;20194;-47
2023/09/12 01:15:13;;;;;;;46.67;36.05;;;;;;;18.74;100.00;101048.38;4978638;28;20178;-47
2023/09/12 01:17:38;;;;;;;48.83;35.80;;;;;;;18.77;100.00;101053.59;4949771;28;20202;-46
2023/09/12 01:20:08;;;;;;;43.72;33.88;;;;;;;18.78;100.00;101055.34;4965269;28;20182;-44
2023/09/12 01:22:56;;;;;;;50.53;34.65;;;;;;;18.68;100.00;101063.22;4966796;28;20174;-46
2023/09/12 01:25:28;;;;;;;40.05;30.92;;;;;;;18.73;100.00;101061.06;4974811;28;20174;-46
2023/09/12 01:27:55;;;;;;;45.92;31.60;;;;;;;18.78;100.00;101065.34;4963215;28;20198;-45
2023/09/12 01:30:22;;;;;;;45.58;33.47;;;;;;;18.70;100.00;101057.72;4964146;28;20298;-44
2023/09/12 01:32:49;;;;;;;46.88;33.70;;;;;;;18.75;100.00;101055.53;4979024;28;20213;-45
2023/09/12 01:35:15;;;;;;;46.72;34.65;;;;;;;18.69;100.00;101045.09;4955255;28;20184;-44
2023/09/12 01:37:40;;;;;;;47.33;34.10;;;;;;;18.64;100.00;101050.84;4961121;28;20261;-43
2023/09/12 01:40:07;;;;;;;49.05;35.90;;;;;;;18.64;100.00;101039.97;4972285;28;20205;-45
2023/09/12 01:42:38;;;;;;;48.75;35.75;;;;;;;18.74;100.00;101032.09;4975036;28;20182;-44
2023/09/12 01:45:05;;;;;;;46.90;37.20;;;;;;;18.68;100.00;101032.50;4965812;28;20184;-45
2023/09/12 01:47:33;;;;;;;50.80;37.88;;;;;;;18.76;100.00;101046.44;4942862;28;20194;-46
2023/09/12 01:50:01;;;;;;;45.58;34.65;;;;;;;18.72;100.00;101044.91;4974843;28;20617;-45
2023/09/12 01:52:27;;;;;;;50.15;37.58;;;;;;;18.65;100.00;101033.59;4969463;28;20240;-44
2023/09/12 01:54:55;;;;;;;47.88;36.42;;;;;;;18.66;100.00;101027.19;4962973;28;20198;-45
2023/09/12 01:57:21;;;;;;;49.88;35.40;;;;;;;18.67;100.00;101017.19;4972611;28;20181;-45
2023/09/12 01:59:48;;;;;;;44.00;32.88;;;;;;;18.76;100.00;101026.53;4955104;28;20187;-46
2023/09/12 02:06:01;;;;;;;44.03;33.28;;;;;;;18.72;100.00;101040.34;4968077;28;20227;-45
2023/09/12 02:08:27;;;;;;;51.33;33.70;;;;;;;18.65;100.00;101035.41;4960447;28;20613;-44
2023/09/12 02:10:52;;;;;;;50.60;35.85;;;;;;;18.64;100.00;101052.69;4961264;28;20242;-46
2023/09/12 02:13:18;;;;;;;46.13;35.58;;;;;;;18.66;100.00;101039.88;4963727;28;20268;-46
2023/09/12 02:15:43;;;;;;;45.58;34.00;;;;;;;18.71;100.00;101046.72;4974320;28;20193;-45
2023/09/12 02:18:09;;;;;;;48.90;35.20;;;;;;;18.71;100.00;101044.00;4967430;28;20227;-45
2023/09/12 02:20:39;;;;;;;46.60;33.67;;;;;;;18.77;100.00;101042.72;4950000;28;20249;-45
2023/09/12 02:23:05;;;;;;;46.70;33.92;;;;;;;18.76;100.00;101049.16;4968713;28;20194;-46
2023/09/12 02:25:30;;;;;;;49.40;33.25;;;;;;;18.78;100.00;101059.91;4973159;28;20556;-46
2023/09/12 02:27:56;;;;;;;53.08;35.67;;;;;;;18.68;100.00;101059.66;4964017;28;20179;-46
2023/09/12 02:30:21;;;;;;;51.88;36.88;;;;;;;18.76;100.00;101070.84;4952598;28;20223;-44
2023/09/12 02:32:47;;;;;;;45.85;33.92;;;;;;;18.78;100.00;101068.91;4968806;28;20192;-45
2023/09/12 02:35:12;;;;;;;55.92;36.97;;;;;;;18.76;100.00;101064.53;4963787;28;20261;-46
2023/09/12 02:37:38;;;;;;;54.67;36.40;;;;;;;18.72;100.00;101055.75;4959983;28;20217;-46
2023/09/12 02:40:10;;;;;;;47.22;33.05;;;;;;;18.85;100.00;101055.81;4957891;28;20198;-45
2023/09/12 02:42:36;;;;;;;52.53;34.80;;;;;;;18.86;100.00;101057.53;4968214;28;20259;-46
2023/09/12 02:45:02;;;;;;;48.25;33.17;;;;;;;18.85;100.00;101058.53;4962763;28;20294;-45
2023/09/12 02:47:27;;;;;;;48.58;32.05;;;;;;;18.89;100.00;101062.75;4960477;28;20206;-47
2023/09/12 02:49:53;;;;;;;49.38;34.78;;;;;;;18.76;100.00;101056.41;4965743;28;20231;-46
2023/09/12 02:52:18;;;;;;;47.42;33.63;;;;;;;18.83;100.00;101055.91;4965257;28;20315;-45
2023/09/12 02:54:44;;;;;;;47.22;33.08;;;;;;;18.81;100.00;101055.16;4955303;28;20250;-46
2023/09/12 02:57:09;;;;;;;47.53;34.03;;;;;;;18.79;100.00;101054.38;4961374;28;20472;-47
2023/09/12 02:59:35;;;;;;;48.15;32.53;;;;;;;18.86;100.00;101066.53;4955057;28;20217;-45
2023/09/12 03:02:00;;;;;;;46.80;31.25;;;;;;;18.88;100.00;101064.59;4963840;28;20202;-48
2023/09/12 03:04:28;;;;;;;49.15;33.35;;;;;;;18.78;100.00;101071.63;4964593;28;20558;-47
2023/09/12 03:06:53;;;;;;;48.13;33.50;;;;;;;18.74;100.00;101070.09;4968291;28;20276;-46
2023/09/12 03:09:19;;;;;;;51.30;34.22;;;;;;;18.79;100.00;101067.09;4968585;28;20273;-48
2023/09/12 03:11:45;;;;;;;36.72;26.95;;;;;;;18.88;100.00;101064.59;4942777;28;20200;-47
2023/09/12 03:14:10;;;;;;;40.85;29.95;;;;;;;18.90;100.00;101059.94;4959954;28;20182;-47
2023/09/12 03:16:37;;;;;;;42.72;28.33;;;;;;;18.95;100.00;101056.88;4963424;28;20184;-46
2023/09/12 03:19:03;;;;;;;46.05;32.70;;;;;;;18.82;100.00;101058.72;4968263;28;20178;-45
2023/09/12 03:21:29;;;;;;;50.53;33.58;;;;;;;18.69;100.00;101055.94;4965973;28;20194;-46
2023/09/12 03:23:54;;;;;;;34.47;26.33;;;;;;;18.81;100.00;101066.00;4959437;28;20529;-46
2023/09/12 03:26:21;;;;;;;40.90;30.15;;;;;;;18.82;100.00;101061.44;4963233;28;20229;-45
2023/09/12 03:28:49;;;;;;;40.38;29.45;;;;;;;18.86;100.00;101061.13;4961820;28;20202;-46
2023/09/12 03:31:15;;;;;;;40.90;30.05;;;;;;;18.79;100.00;101067.09;4958838;28;20654;-46
2023/09/12 03:33:42;;;;;;;36.25;25.92;;;;;;;18.85;100.00;101072.09;4949269;28;20239;-46
2023/09/12 03:36:08;;;;;;;39.78;29.30;;;;;;;18.74;100.00;101070.09;4959857;28;20651;-47
2023/09/12 03:38:35;;;;;;;40.63;28.63;;;;;;;18.69;100.00;101072.22;4964979;28;20179;-46
2023/09/12 03:41:01;;;;;;;38.17;30.00;;;;;;;18.63;100.00;101068.13;4956705;28;20194;-46
2023/09/12 03:43:28;;;;;;;34.88;25.70;;;;;;;18.76;100.00;101073.56;4956537;28;20919;-46
2023/09/12 03:45:53;;;;;;;36.03;26.48;;;;;;;18.65;100.00;101076.13;4958187;28;20328;-45
2023/09/12 03:48:19;;;;;;;39.58;29.05;;;;;;;18.64;100.00;101082.53;4948898;28;20184;-46
2023/09/12 03:50:45;;;;;;;32.70;26.42;;;;;;;18.62;100.00;101079.94;4963993;28;20687;-46
2023/09/12 03:53:11;;;;;;;31.70;26.30;;;;;;;18.66;100.00;101067.03;4957937;28;20189;-48
2023/09/12 03:55:37;;;;;;;34.13;25.67;;;;;;;18.70;100.00;101053.13;4955907;28;20185;-45
2023/09/12 03:58:03;;;;;;;31.30;26.35;;;;;;;18.68;100.00;101056.94;4960426;28;20188;-46
2023/09/12 04:00:28;;;;;;;31.42;23.77;;;;;;;18.68;100.00;101049.66;4963505;28;20255;-47
2023/09/12 04:02:54;;;;;;;33.50;26.58;;;;;;;18.61;100.00;101055.63;4944410;28;20238;-46
2023/09/12 04:05:19;;;;;;;22.45;19.67;;;;;;;18.72;100.00;101061.19;4961674;28;20178;-46
2023/09/12 04:07:45;;;;;;;23.63;19.42;;;;;;;18.76;100.00;101075.41;4956959;28;20182;-46
2023/09/12 04:10:10;;;;;;;29.48;24.17;;;;;;;18.63;100.00;101078.06;4957698;28;20238;-45
2023/09/12 04:12:36;;;;;;;25.27;22.13;;;;;;;18.62;100.00;101079.06;4972589;28;20178;-44
2023/09/12 04:15:01;;;;;;;24.80;20.20;;;;;;;18.69;100.00;101083.09;4959534;28;20557;-44
2023/09/12 04:17:27;;;;;;;30.40;26.33;;;;;;;18.52;100.00;101086.97;4957224;28;20190;-45
2023/09/12 04:19:52;;;;;;;32.65;25.65;;;;;;;18.52;100.00;101076.97;4963882;28;20183;-45
2023/09/12 04:22:18;;;;;;;30.00;23.42;;;;;;;18.57;100.00;101079.38;4964903;28;20199;-44
2023/09/12 04:24:44;;;;;;;36.30;27.83;;;;;;;18.51;100.00;101077.94;4959683;28;20190;-45
2023/09/12 04:27:09;;;;;;;29.27;23.48;;;;;;;18.59;100.00;101079.28;4957534;28;20583;-46
2023/09/12 04:29:35;;;;;;;32.00;25.98;;;;;;;18.59;100.00;101077.44;4968873;28;20587;-44
2023/09/12 04:32:03;;;;;;;33.35;26.92;;;;;;;18.59;100.00;101082.88;4961581;28;20224;-45
2023/09/12 04:34:29;;;;;;;32.33;24.73;;;;;;;18.52;100.00;101078.84;4958028;28;20253;-44
2023/09/12 04:36:54;;;;;;;32.53;26.92;;;;;;;18.39;100.00;101067.94;4971365;28;20779;-45
2023/09/12 04:39:21;;;;;;;36.88;28.50;;;;;;;18.41;100.00;101059.66;4963557;28;20641;-45
2023/09/12 04:41:46;;;;;;;29.58;23.25;;;;;;;18.54;100.00;101068.72;4954308;28;20197;-44
2023/09/12 04:44:12;;;;;;;31.15;24.20;;;;;;;18.51;100.00;101060.78;4961393;28;20313;-44
2023/09/12 04:46:37;;;;;;;26.75;21.48;;;;;;;18.53;100.00;101065.13;4975290;28;20170;-45
2023/09/12 04:49:03;;;;;;;34.70;26.27;;;;;;;18.46;100.00;101068.38;4967210;28;20182;-44
2023/09/12 04:51:30;;;;;;;29.80;24.85;;;;;;;18.46;100.00;101077.38;4954434;28;20201;-43
2023/09/12 04:53:55;;;;;;;30.65;25.80;;;;;;;18.48;100.00;101061.88;4951518;28;20205;-44
2023/09/12 04:56:24;;;;;;;28.70;22.77;;;;;;;18.52;100.00;101055.28;4951851;28;20181;-46
2023/09/12 04:58:50;;;;;;;27.95;24.52;;;;;;;18.52;100.00;101058.00;4963842;28;20183;-45
2023/09/12 05:01:16;;;;;;;34.40;28.02;;;;;;;18.45;100.00;101058.50;4958406;28;20201;-45
2023/09/12 05:03:42;;;;;;;31.83;25.92;;;;;;;18.49;100.00;101054.59;4968757;28;20636;-44
2023/09/12 05:06:08;;;;;;;29.95;24.95;;;;;;;18.56;100.00;101057.75;4968880;28;20198;-44
2023/09/12 05:08:34;;;;;;;34.35;26.92;;;;;;;18.57;100.00;101059.53;4942748;28;20186;-43
2023/09/12 05:10:59;;;;;;;42.13;31.45;;;;;;;18.45;100.00;101053.94;4966826;28;20220;-43
2023/09/12 05:13:25;;;;;;;28.40;23.83;;;;;;;18.57;100.00;101062.25;4965737;28;20424;-47
2023/09/12 05:15:51;;;;;;;30.33;24.02;;;;;;;18.64;100.00;101068.97;4961640;28;20232;-45
2023/09/12 05:18:17;;;;;;;41.25;30.20;;;;;;;18.52;100.00;101065.25;4963876;28;20333;-45
2023/09/12 05:20:42;;;;;;;44.50;33.10;;;;;;;18.41;100.00;101073.22;4973462;28;20260;-43
2023/09/12 05:23:08;;;;;;;41.63;30.67;;;;;;;18.42;100.00;101077.69;4964207;28;20277;-43
2023/09/12 05:25:33;;;;;;;34.60;26.92;;;;;;;18.51;100.00;101077.06;4961343;28;20176;-45
2023/09/12 05:27:59;;;;;;;43.72;31.95;;;;;;;18.48;100.00;101080.00;4970132;28;20288;-44
2023/09/12 05:30:24;;;;;;;41.50;30.45;;;;;;;18.49;100.00;101065.44;4967619;28;20197;-44
2023/09/12 05:32:50;;;;;;;46.35;31.88;;;;;;;18.54;100.00;101076.84;4964860;28;20573;-44
2023/09/12 05:35:16;;;;;;;45.60;33.55;;;;;;;18.51;100.00;101077.06;4951258;28;20173;-44
2023/09/12 05:37:42;;;;;;;44.28;33.30;;;;;;;18.56;100.00;101069.47;4960079;28;20228;-44
2023/09/12 05:40:09;;;;;;;43.95;32.55;;;;;;;18.60;100.00;101068.31;4971320;28;20645;-44
2023/09/12 05:42:34;;;;;;;47.25;33.15;;;;;;;18.58;100.00;101072.09;4937260;28;20796;-45
2023/09/12 05:45:00;;;;;;;51.35;36.22;;;;;;;18.53;100.00;101070.56;4968587;28;20189;-46
2023/09/12 05:47:26;;;;;;;38.75;31.10;;;;;;;18.61;100.00;101074.63;4953506;28;20591;-43
2023/09/12 05:49:51;;;;;;;49.75;34.90;;;;;;;18.56;100.00;101079.47;4944531;28;20257;-45
2023/09/12 05:52:17;;;;;;;51.13;36.20;;;;;;;18.52;100.00;101086.97;4939903;28;20529;-45
2023/09/12 05:54:43;;;;;;;48.63;35.13;;;;;;;18.49;100.00;101071.75;5017341;23;20225;-42
2023/09/12 05:57:10;;;;;;;46.67;33.75;;;;;;;18.48;100.00;101089.00;4989488;28;20698;-46
2023/09/12 05:59:38;;;;;;;53.10;36.70;;;;;;;18.44;100.00;101086.59;4985404;28;20189;-46
2023/09/12 06:02:09;;;;;;;37.90;30.25;;;;;;;18.57;100.00;101092.09;4975381;28;20197;-49
2023/09/12 06:04:35;;;;;;;49.63;34.95;;;;;;;18.56;100.00;101083.06;4973605;28;20216;-44
2023/09/12 06:07:04;;;;;;;42.10;31.27;;;;;;;18.67;100.00;101088.66;4990289;28;20189;-43
2023/09/12 06:09:30;;;;;;;55.03;36.25;;;;;;;18.66;100.00;101092.31;4986228;28;20177;-44
2023/09/12 06:11:56;;;;;;;52.58;36.50;;;;;;;18.68;100.00;101100.38;4989500;28;20616;-43
2023/09/12 06:14:22;;;;;;;43.38;33.05;;;;;;;18.75;100.00;101096.25;4984346;28;20184;-44
2023/09/12 06:16:48;;;;;;;40.22;29.40;;;;;;;18.83;100.00;101104.78;4986653;28;20698;-44
2023/09/12 06:19:17;;;;;;;52.10;36.78;;;;;;;18.79;100.00;101099.66;4990230;28;20185;-46
2023/09/12 06:21:43;;;;;;;52.92;36.67;;;;;;;18.69;100.00;101099.38;4990134;28;20191;-43
2023/09/12 06:24:10;;;;;;;54.55;36.97;;;;;;;18.63;100.00;101102.50;4981379;28;20189;-46
2023/09/12 06:26:36;;;;;;;60.10;38.58;;;;;;;18.66;100.00;101103.16;4980947;28;20177;-45
2023/09/12 06:29:02;;;;;;;53.13;37.50;;;;;;;18.71;100.00;101102.84;4988260;28;20251;-43
2023/09/12 06:31:28;;;;;;;49.83;34.65;;;;;;;18.80;100.00;101094.09;4990616;28;20577;-44
2023/09/12 06:33:53;;;;;;;54.60;37.70;;;;;;;18.77;100.00;101098.88;4987647;28;20191;-43
2023/09/12 06:36:19;;;;;;;51.70;36.60;;;;;;;18.77;100.00;101090.72;4990475;28;20264;-45
2023/09/12 06:38:44;;;;;;;43.42;33.60;;;;;;;18.85;100.00;101089.25;4991304;28;20238;-44
2023/09/12 06:41:10;;;;;;;55.17;38.22;;;;;;;18.81;100.00;101098.59;4988870;28;20231;-43
2023/09/12 06:43:35;;;;;;;47.25;34.60;;;;;;;18.94;100.00;101113.06;4987511;28;20181;-44
2023/09/12 06:46:01;;;;;;;55.72;38.90;;;;;;;18.97;100.00;101111.09;4999703;28;20177;-44
2023/09/12 06:48:26;;;;;;;55.40;38.03;;;;;;;18.98;100.00;101105.56;4989454;28;20663;-43
2023/09/12 06:50:54;;;;;;;46.28;33.35;;;;;;;19.13;100.00;101118.09;4988238;28;20205;-44
2023/09/12 06:53:20;;;;;;;52.88;37.17;;;;;;;19.13;100.00;101118.09;4991871;28;20177;-43
2023/09/12 06:55:45;;;;;;;53.58;38.45;;;;;;;19.18;100.00;101122.34;4991494;28;20178;-43
2023/09/12 06:58:11;;;;;;;47.50;35.95;;;;;;;19.30;100.00;101111.44;4985149;28;20719;-43
2023/09/12 07:00:36;;;;;;;43.80;34.92;;;;;;;19.48;100.00;101119.28;4989335;28;20194;-45
2023/09/12 07:03:02;;;;;;;53.15;43.35;;;;;;;19.48;100.00;101120.16;4997676;28;20560;-44
2023/09/12 07:05:27;;;;;;;51.42;39.85;;;;;;;19.48;100.00;101114.75;4991437;28;20267;-42
2023/09/12 07:07:53;;;;;;;49.85;40.38;;;;;;;19.50;100.00;101110.06;4991635;28;20413;-43
2023/09/12 07:10:19;;;;;;;44.20;35.22;;;;;;;19.65;100.00;101101.78;4982570;28;20207;-45
2023/09/12 07:12:44;;;;;;;44.95;35.25;;;;;;;19.67;100.00;101102.53;4993313;28;20175;-43
2023/09/12 07:15:10;;;;;;;43.00;34.25;;;;;;;19.61;100.00;101101.09;4976263;28;20209;-43
2023/09/12 07:17:35;;;;;;;39.60;32.10;;;;;;;19.68;100.00;101094.28;4990968;28;20184;-43
2023/09/12 07:20:01;;;;;;;42.90;33.78;;;;;;;19.58;100.00;101098.63;4990049;28;20212;-43
2023/09/12 07:22:27;;;;;;;42.42;30.67;;;;;;;19.56;100.00;101104.16;4989956;28;20211;-43
2023/09/12 07:24:52;;;;;;;45.90;32.97;;;;;;;19.59;100.00;101091.34;4991066;28;20173;-42
2023/09/12 07:27:18;;;;;;;43.58;34.45;;;;;;;19.58;100.00;101093.19;4973111;28;20189;-45
2023/09/12 07:29:43;;;;;;;40.75;31.48;;;;;;;19.60;100.00;101090.38;4986296;28;20203;-43
2023/09/12 07:32:09;;;;;;;42.33;31.67;;;;;;;19.64;100.00;101092.75;4987873;28;20202;-44
2023/09/12 07:34:34;;;;;;;45.72;34.33;;;;;;;19.64;100.00;101092.75;4988660;28;20188;-45
2023/09/12 07:37:01;;;;;;;43.25;33.63;;;;;;;19.55;100.00;101097.00;4995429;28;20629;-44
2023/09/12 07:39:26;;;;;;;43.50;33.08;;;;;;;19.66;100.00;101090.78;4986139;28;20219;-44
2023/09/12 07:41:51;;;;;;;39.97;31.02;;;;;;;19.73;100.00;101086.69;4991801;28;20590;-46
2023/09/12 07:44:17;;;;;;;37.47;29.60;;;;;;;19.85;100.00;101087.63;4986762;28;20690;-45
2023/09/12 07:46:44;;;;;;;43.45;32.63;;;;;;;19.95;100.00;101090.56;4987156;28;20175;-44
2023/09/12 07:49:09;;;;;;;37.33;29.63;;;;;;;19.95;100.00;101091.41;4978208;28;20224;-44
2023/09/12 07:51:35;;;;;;;37.63;28.50;;;;;;;20.18;100.00;101083.38;4987688;28;20247;-44
2023/09/12 07:54:01;;;;;;;37.38;30.48;;;;;;;20.14;100.00;101081.91;4986866;28;20241;-44
2023/09/12 07:56:27;;;;;;;36.75;30.88;;;;;;;20.13;100.00;101077.44;4985522;28;20185;-43
2023/09/12 07:58:53;;;;;;;32.80;26.80;;;;;;;20.18;100.00;101091.56;4993680;28;20173;-45
2023/09/12 08:01:18;;;;;;;39.28;30.95;;;;;;;20.22;100.00;101087.63;4983332;28;20288;-43
2023/09/12 08:03:44;;;;;;;33.08;28.42;;;;;;;20.24;100.00;101079.34;4983743;28;20256;-43
2023/09/12 08:06:09;;;;;;;35.15;28.48;;;;;;;20.33;100.00;101075.94;4988836;28;20201;-44
2023/09/12 08:08:35;;;;;;;35.92;30.67;;;;;;;20.27;100.00;101077.28;4992967;28;20635;-45
2023/09/12 08:11:01;;;;;;;39.00;29.30;;;;;;;20.22;100.00;101081.31;4982938;28;20576;-43
2023/09/12 08:13:28;;;;;;;30.40;26.08;;;;;;;20.34;100.00;101074.97;4984305;28;20188;-45
2023/09/12 08:15:54;;;;;;;29.35;26.02;;;;;;;20.44;100.00;101062.38;4990476;28;20258;-44
2023/09/12 08:18:19;;;;;;;33.15;26.90;;;;;;;20.41;100.00;101061.75;4976007;28;20643;-44
2023/09/12 08:20:45;;;;;;;32.03;22.52;;;;;;;20.56;100.00;101068.75;4979370;28;20221;-43
2023/09/12 08:23:11;;;;;;;32.65;24.83;;;;;;;20.28;100.00;101070.84;4982070;28;20191;-42
2023/09/12 08:25:36;;;;;;;28.65;23.55;;;;;;;20.33;100.00;101067.78;4991438;28;20173;-44
2023/09/12 08:28:02;;;;;;;27.80;23.52;;;;;;;20.25;100.00;101067.50;4983507;28;20617;-44
2023/09/12 08:30:30;;;;;;;34.08;23.20;;;;;;;20.32;100.00;101066.03;4982716;28;20297;-44
2023/09/12 08:32:55;;;;;;;28.65;23.20;;;;;;;20.41;100.00;101072.66;4991356;28;20192;-44
2023/09/12 08:35:21;;;;;;;25.33;20.70;;;;;;;20.66;100.00;101060.78;4985941;28;20179;-44
2023/09/12 08:37:46;;;;;;;27.83;22.92;;;;;;;20.65;100.00;101064.50;4985624;28;20555;-43
2023/09/12 08:40:13;;;;;;;25.17;22.42;;;;;;;20.61;100.00;101066.56;4981698;28;20207;-44
2023/09/12 08:42:40;;;;;;;25.73;20.83;;;;;;;21.07;100.00;101067.56;4991451;28;20284;-43
2023/09/12 08:45:12;;;;;;;25.70;20.35;;;;;;;21.36;100.00;101073.44;4983862;28;20200;-44
2023/09/12 08:47:40;;;;;;;23.65;20.17;;;;;;;21.29;100.00;101072.19;4982511;28;20173;-45
2023/09/12 08:50:09;;;;;;;24.23;19.48;;;;;;;21.40;100.00;101075.78;4995710;28;20208;-44
2023/09/12 08:52:35;;;;;;;22.58;17.67;;;;;;;21.53;100.00;101074.84;4991062;28;20181;-45
2023/09/12 08:55:01;;;;;;;23.77;17.13;;;;;;;21.73;100.00;101071.34;4979985;28;20209;-45
2023/09/12 08:57:27;;;;;;;19.13;16.63;;;;;;;21.82;100.00;101075.19;4988336;28;20207;-43
2023/09/12 08:59:53;;;;;;;21.17;17.98;;;;;;;21.67;100.00;101073.72;4995863;28;20180;-45
2023/09/12 09:02:19;;;;;;;18.15;16.25;;;;;;;21.72;100.00;101072.38;4993162;28;20193;-44
2023/09/12 09:04:47;;;;;;;17.75;16.02;;;;;;;22.08;100.00;101070.31;4983053;28;20184;-43
2023/09/12 09:07:14;;;;;;;18.17;14.98;;;;;;;22.31;100.00;101070.31;4995350;28;20259;-43
2023/09/12 09:09:40;;;;;;;14.93;13.40;;;;;;;22.30;100.00;101065.84;4990552;28;20185;-44
2023/09/12 09:12:10;;;;;;;18.30;13.00;;;;;;;22.36;98.11;101068.91;4983279;28;20204;-45
2023/09/12 09:14:36;;;;;;;18.05;13.15;;;;;;;21.86;97.72;101064.91;4987709;28;20216;-45
2023/09/12 09:17:01;;;;;;;13.88;11.40;;;;;;;21.88;98.63;101069.25;4993303;28;20706;-44
2023/09/12 09:19:45;;;;;;;13.25;11.38;;;;;;;21.98;97.76;101069.38;4987595;28;20193;-44
2023/09/12 09:22:11;;;;;;;17.77;11.35;;;;;;;22.15;97.15;101067.94;4983271;28;20328;-45
2023/09/12 09:24:37;;;;;;;13.02;10.57;;;;;;;22.23;95.98;101065.47;4992229;28;20263;-43
2023/09/12 09:27:03;;;;;;;13.15;10.02;;;;;;;22.16;95.49;101077.88;4991647;28;20176;-40
2023/09/12 09:29:31;;;;;;;13.52;10.27;;;;;;;22.38;94.51;101075.13;4983963;28;20192;-44
2023/09/12 09:31:59;;;;;;;13.75;9.63;;;;;;;22.06;93.28;101066.84;4991822;28;20596;-41
2023/09/12 09:34:27;;;;;;;13.85;10.30;;;;;;;22.00;92.64;101076.44;4992929;28;20265;-43
2023/09/12 09:36:55;;;;;;;16.35;9.93;;;;;;;21.84;93.70;101089.56;4973798;28;20197;-43
2023/09/12 09:39:23;;;;;;;15.00;9.15;;;;;;;22.14;93.38;101072.53;4990064;28;20191;-45
2023/09/12 09:41:50;;;;;;;12.00;9.40;;;;;;;22.31;93.54;101083.97;4992077;28;20200;-44
2023/09/12 09:44:16;;;;;;;12.02;8.82;;;;;;;22.62;93.46;101087.69;4986190;28;20607;-44
2023/09/12 09:46:46;;;;;;;11.15;9.68;;;;;;;22.95;91.64;101072.13;4985897;28;20198;-43
2023/09/12 09:49:16;;;;;;;11.60;10.40;;;;;;;22.87;89.84;101071.94;4990630;28;20192;-45
2023/09/12 09:51:42;;;;;;;11.00;9.82;;;;;;;22.50;89.02;101067.78;4990008;28;20290;-44
2023/09/12 09:54:08;;;;;;;11.68;9.40;;;;;;;22.34;87.35;101061.84;4982642;28;20667;-44
2023/09/12 09:56:48;;;;;;;11.18;10.05;;;;;;;22.69;85.81;101049.78;4985563;28;20203;-42
2023/09/12 09:59:18;;;;;;;9.95;8.95;;;;;;;22.30;85.63;101053.09;4987057;28;20493;-45
2023/09/12 10:01:45;;;;;;;9.80;8.80;;;;;;;22.75;86.29;101068.41;4985651;28;20686;-43
2023/09/12 10:04:11;;;;;;;9.93;8.80;;;;;;;22.52;84.68;101071.25;4980246;28;20246;-44
2023/09/12 10:06:38;;;;;;;11.95;8.55;;;;;;;22.61;85.11;101055.94;4978463;28;20185;-45
2023/09/12 10:09:12;;;;;;;9.98;8.98;;;;;;;22.89;84.25;101051.66;4969302;28;20191;-42
2023/09/12 10:11:42;;;;;;;10.52;9.05;;;;;;;22.59;83.59;101045.13;4982991;28;20308;-41
2023/09/12 10:14:08;;;;;;;10.23;9.13;;;;;;;22.59;82.96;101049.72;4983320;28;20212;-44
2023/09/12 10:16:35;;;;;;;9.43;8.40;;;;;;;22.53;84.29;101048.38;4995376;28;20738;-45
2023/09/12 10:19:22;;;;;;;10.05;8.50;;;;;;;22.37;85.68;101058.88;4982623;28;20652;-45
2023/09/12 10:21:50;;;;;;;8.75;7.90;;;;;;;22.17;85.80;101061.41;4982625;28;20545;-44
2023/09/12 10:24:16;;;;;;;9.40;8.30;;;;;;;22.49;85.85;101063.28;4989412;28;20193;-44
2023/09/12 10:26:45;;;;;;;8.30;7.07;;;;;;;22.54;84.37;101069.25;4985107;28;20259;-45
2023/09/12 10:29:14;;;;;;;10.55;8.07;;;;;;;22.79;83.44;101069.88;4977638;28;20659;-45
2023/09/12 10:31:40;;;;;;;9.27;8.38;;;;;;;22.93;83.95;101061.31;4984281;28;20216;-44
2023/09/12 10:34:09;;;;;;;8.43;7.30;;;;;;;22.97;81.54;101053.75;4990265;28;20177;-45
2023/09/12 10:36:42;;;;;;;9.77;6.78;;;;;;;22.86;81.05;101054.66;4984774;28;20185;-44
2023/09/12 10:39:10;;;;;;;8.25;6.95;;;;;;;22.88;81.36;101062.75;4978305;28;20280;-46
2023/09/12 10:41:38;;;;;;;9.00;7.15;;;;;;;23.01;80.76;101060.72;4990398;28;20203;-47
2023/09/12 10:44:11;;;;;;;9.05;6.90;;;;;;;22.74;81.19;101056.63;4985254;28;20186;-43
2023/09/12 10:46:40;;;;;;;7.38;6.68;;;;;;;22.68;80.55;101064.47;4981021;28;20189;-45
2023/09/12 10:49:11;;;;;;;8.45;6.50;;;;;;;22.65;81.07;101067.44;4968823;28;20217;-44
2023/09/12 10:51:47;;;;;;;9.68;6.53;;;;;;;22.87;81.27;101067.34;4984477;28;20303;-45
2023/09/12 10:54:15;;;;;;;9.35;6.55;;;;;;;22.72;80.52;101068.63;4981290;28;20185;-45
2023/09/12 10:56:41;;;;;;;7.03;6.40;;;;;;;22.70;80.82;101065.19;4982965;28;20189;-45
2023/09/12 10:59:06;;;;;;;7.15;6.40;;;;;;;22.45;81.66;101070.00;4990566;28;20228;-44
2023/09/12 11:01:35;;;;;;;8.23;5.78;;;;;;;22.21;82.07;101068.34;4980119;28;20205;-44
2023/09/12 11:04:19;;;;;;;6.22;5.72;;;;;;;22.37;82.94;101072.53;4981453;28;20177;-45
2023/09/12 11:06:47;;;;;;;6.50;5.80;;;;;;;22.62;83.13;101069.44;4984662;28;20212;-41